HEAT

Assiut International Airport

Assiut, Egypt
METAR HEAT 172000Z 28007KT CAVOK 16/09 Q1020 NOSIG
Observed Flight Rules
Dec-17 @ 20:00 UTC (an hour ago) Visual Flight Rules
Wind Visibility Clouds
280° at 7 knots 10,000+ meters
  • Clear skies
Temperatures Readings
Current 16°C / 61°F
Dewpoint 9°C / 48°F
Humidity 63%
Altimeter 30.12" Hg
Pressure 1020 hPa
Elevation 70
METAR HEAT 172000Z 28007KT CAVOK 16/09 Q1020 NOSIG
Observed Flight Rules
Dec-17 @ 20:00 UTC
(an hour ago)
VFR
Wind Visibility
280° at 7 knots 10,000+ meters
Clouds
  • Clear skies
Temperature Dewpoint
16°C / 61°F 9°C / 48°F
Humidity Altimeter Pressure
63% 30.12" Hg 1020 hPa